sensor_id;sensor_type;location;lat;lon;timestamp;temperature;humidity
1367;DHT22;16877;48.810;9.282;2023-08-12T00:02:11;31.10;51.50
1367;DHT22;16877;48.810;9.282;2023-08-12T00:04:48;31.10;51.60
1367;DHT22;16877;48.810;9.282;2023-08-12T00:07:17;31.10;51.70
1367;DHT22;16877;48.810;9.282;2023-08-12T00:09:44;31.00;51.70
1367;DHT22;16877;48.810;9.282;2023-08-12T00:12:11;31.00;51.70
1367;DHT22;16877;48.810;9.282;2023-08-12T00:14:39;31.00;51.70
1367;DHT22;16877;48.810;9.282;2023-08-12T00:17:06;31.00;51.80
1367;DHT22;16877;48.810;9.282;2023-08-12T00:19:34;31.00;51.90
1367;DHT22;16877;48.810;9.282;2023-08-12T00:22:01;30.90;51.80
1367;DHT22;16877;48.810;9.282;2023-08-12T00:24:32;30.90;51.80
1367;DHT22;16877;48.810;9.282;2023-08-12T00:26:59;30.90;51.90
1367;DHT22;16877;48.810;9.282;2023-08-12T00:29:27;30.90;51.90
1367;DHT22;16877;48.810;9.282;2023-08-12T00:31:54;30.90;52.00
1367;DHT22;16877;48.810;9.282;2023-08-12T00:34:21;30.80;52.00
1367;DHT22;16877;48.810;9.282;2023-08-12T00:36:49;30.80;52.00
1367;DHT22;16877;48.810;9.282;2023-08-12T00:39:16;30.80;52.10
1367;DHT22;16877;48.810;9.282;2023-08-12T00:41:46;30.80;52.20
1367;DHT22;16877;48.810;9.282;2023-08-12T00:44:14;30.70;52.20
1367;DHT22;16877;48.810;9.282;2023-08-12T00:46:43;30.80;52.30
1367;DHT22;16877;48.810;9.282;2023-08-12T00:49:10;30.70;52.30
1367;DHT22;16877;48.810;9.282;2023-08-12T00:51:39;30.70;52.30
1367;DHT22;16877;48.810;9.282;2023-08-12T00:54:12;30.70;52.30
1367;DHT22;16877;48.810;9.282;2023-08-12T00:56:39;30.70;52.40
1367;DHT22;16877;48.810;9.282;2023-08-12T00:59:09;30.70;52.50
1367;DHT22;16877;48.810;9.282;2023-08-12T01:01:40;30.60;52.40
1367;DHT22;16877;48.810;9.282;2023-08-12T01:04:07;30.60;52.50
1367;DHT22;16877;48.810;9.282;2023-08-12T01:06:34;30.60;52.50
1367;DHT22;16877;48.810;9.282;2023-08-12T01:09:03;30.60;52.60
1367;DHT22;16877;48.810;9.282;2023-08-12T01:11:36;30.60;52.60
1367;DHT22;16877;48.810;9.282;2023-08-12T01:14:12;30.50;52.60
1367;DHT22;16877;48.810;9.282;2023-08-12T01:16:43;30.50;52.60
1367;DHT22;16877;48.810;9.282;2023-08-12T01:19:22;30.50;52.60
1367;DHT22;16877;48.810;9.282;2023-08-12T01:21:55;30.50;52.70
1367;DHT22;16877;48.810;9.282;2023-08-12T01:24:32;30.50;52.70
1367;DHT22;16877;48.810;9.282;2023-08-12T01:27:00;30.50;52.80
1367;DHT22;16877;48.810;9.282;2023-08-12T01:29:28;30.50;52.80
1367;DHT22;16877;48.810;9.282;2023-08-12T01:32:00;30.40;52.80
1367;DHT22;16877;48.810;9.282;2023-08-12T01:34:39;30.40;52.90
1367;DHT22;16877;48.810;9.282;2023-08-12T01:37:09;30.50;53.00
1367;DHT22;16877;48.810;9.282;2023-08-12T01:39:40;30.40;52.90
1367;DHT22;16877;48.810;9.282;2023-08-12T01:42:09;30.40;52.90
1367;DHT22;16877;48.810;9.282;2023-08-12T01:44:38;30.40;53.00
1367;DHT22;16877;48.810;9.282;2023-08-12T01:47:07;30.30;53.00
1367;DHT22;16877;48.810;9.282;2023-08-12T01:49:35;30.30;53.00
1367;DHT22;16877;48.810;9.282;2023-08-12T01:52:02;30.30;53.10
1367;DHT22;16877;48.810;9.282;2023-08-12T01:54:29;30.30;53.00
1367;DHT22;16877;48.810;9.282;2023-08-12T01:57:01;30.30;53.10
1367;DHT22;16877;48.810;9.282;2023-08-12T01:59:31;30.30;53.20
1367;DHT22;16877;48.810;9.282;2023-08-12T02:02:01;30.20;53.10
1367;DHT22;16877;48.810;9.282;2023-08-12T02:04:28;30.20;53.20
1367;DHT22;16877;48.810;9.282;2023-08-12T02:06:56;30.20;53.20
1367;DHT22;16877;48.810;9.282;2023-08-12T02:09:24;30.20;53.20
1367;DHT22;16877;48.810;9.282;2023-08-12T02:11:51;30.20;53.80
1367;DHT22;16877;48.810;9.282;2023-08-12T02:14:19;30.20;53.30
1367;DHT22;16877;48.810;9.282;2023-08-12T02:16:47;30.20;53.30
1367;DHT22;16877;48.810;9.282;2023-08-12T02:19:14;30.20;53.30
1367;DHT22;16877;48.810;9.282;2023-08-12T02:21:42;30.20;53.40
1367;DHT22;16877;48.810;9.282;2023-08-12T02:24:10;30.20;53.40
1367;DHT22;16877;48.810;9.282;2023-08-12T02:26:37;30.20;53.40
1367;DHT22;16877;48.810;9.282;2023-08-12T02:29:04;30.20;53.40
1367;DHT22;16877;48.810;9.282;2023-08-12T02:31:33;30.20;53.50
1367;DHT22;16877;48.810;9.282;2023-08-12T02:34:01;30.10;53.40
1367;DHT22;16877;48.810;9.282;2023-08-12T02:36:29;30.10;53.50
1367;DHT22;16877;48.810;9.282;2023-08-12T02:38:56;30.20;53.50
1367;DHT22;16877;48.810;9.282;2023-08-12T02:41:24;30.10;53.50
1367;DHT22;16877;48.810;9.282;2023-08-12T02:43:51;30.10;53.50
1367;DHT22;16877;48.810;9.282;2023-08-12T02:46:19;30.10;53.50
1367;DHT22;16877;48.810;9.282;2023-08-12T02:48:48;30.10;53.60
1367;DHT22;16877;48.810;9.282;2023-08-12T02:51:15;30.20;54.20
1367;DHT22;16877;48.810;9.282;2023-08-12T02:53:42;30.10;53.60
1367;DHT22;16877;48.810;9.282;2023-08-12T02:56:10;30.10;53.60
1367;DHT22;16877;48.810;9.282;2023-08-12T02:58:38;30.10;53.60
1367;DHT22;16877;48.810;9.282;2023-08-12T03:01:05;30.10;53.60
1367;DHT22;16877;48.810;9.282;2023-08-12T03:03:33;30.10;53.60
1367;DHT22;16877;48.810;9.282;2023-08-12T03:06:03;30.10;53.60
1367;DHT22;16877;48.810;9.282;2023-08-12T03:08:32;30.10;53.60
1367;DHT22;16877;48.810;9.282;2023-08-12T03:10:59;30.10;53.60
1367;DHT22;16877;48.810;9.282;2023-08-12T03:13:26;30.10;53.60
1367;DHT22;16877;48.810;9.282;2023-08-12T03:15:54;30.10;53.70
1367;DHT22;16877;48.810;9.282;2023-08-12T03:18:22;30.10;53.70
1367;DHT22;16877;48.810;9.282;2023-08-12T03:20:49;30.10;53.70
1367;DHT22;16877;48.810;9.282;2023-08-12T03:23:18;30.10;54.30
1367;DHT22;16877;48.810;9.282;2023-08-12T03:25:47;30.10;53.80
1367;DHT22;16877;48.810;9.282;2023-08-12T03:28:13;30.10;53.80
1367;DHT22;16877;48.810;9.282;2023-08-12T03:30:41;30.10;53.80
1367;DHT22;16877;48.810;9.282;2023-08-12T03:33:09;30.10;53.80
1367;DHT22;16877;48.810;9.282;2023-08-12T03:35:36;30.10;53.70
1367;DHT22;16877;48.810;9.282;2023-08-12T03:38:04;30.10;53.80
1367;DHT22;16877;48.810;9.282;2023-08-12T03:40:32;30.00;53.70
1367;DHT22;16877;48.810;9.282;2023-08-12T03:42:59;30.00;53.80
1367;DHT22;16877;48.810;9.282;2023-08-12T03:45:27;30.00;53.80
1367;DHT22;16877;48.810;9.282;2023-08-12T03:47:54;30.00;53.80
1367;DHT22;16877;48.810;9.282;2023-08-12T03:50:22;30.00;53.80
1367;DHT22;16877;48.810;9.282;2023-08-12T03:52:49;30.00;53.80
1367;DHT22;16877;48.810;9.282;2023-08-12T03:55:17;30.00;53.90
1367;DHT22;16877;48.810;9.282;2023-08-12T03:57:46;30.00;53.90
1367;DHT22;16877;48.810;9.282;2023-08-12T04:00:13;30.00;53.90
1367;DHT22;16877;48.810;9.282;2023-08-12T04:02:42;30.00;53.90
1367;DHT22;16877;48.810;9.282;2023-08-12T04:05:10;30.00;54.00
1367;DHT22;16877;48.810;9.282;2023-08-12T04:07:37;30.00;54.00
1367;DHT22;16877;48.810;9.282;2023-08-12T04:10:06;30.00;54.00
1367;DHT22;16877;48.810;9.282;2023-08-12T04:12:34;30.00;54.00
1367;DHT22;16877;48.810;9.282;2023-08-12T04:15:03;30.00;54.00
1367;DHT22;16877;48.810;9.282;2023-08-12T04:17:31;30.00;54.00
1367;DHT22;16877;48.810;9.282;2023-08-12T04:19:59;30.00;54.00
1367;DHT22;16877;48.810;9.282;2023-08-12T04:22:26;30.00;54.00
1367;DHT22;16877;48.810;9.282;2023-08-12T04:24:53;30.00;54.10
1367;DHT22;16877;48.810;9.282;2023-08-12T04:27:21;30.00;54.00
1367;DHT22;16877;48.810;9.282;2023-08-12T04:29:49;30.00;54.10
1367;DHT22;16877;48.810;9.282;2023-08-12T04:32:18;30.00;54.00
1367;DHT22;16877;48.810;9.282;2023-08-12T04:34:46;30.00;54.10
1367;DHT22;16877;48.810;9.282;2023-08-12T04:37:13;30.00;54.00
1367;DHT22;16877;48.810;9.282;2023-08-12T04:39:40;30.00;54.10
1367;DHT22;16877;48.810;9.282;2023-08-12T04:42:08;30.00;54.10
1367;DHT22;16877;48.810;9.282;2023-08-12T04:44:35;30.00;54.10
1367;DHT22;16877;48.810;9.282;2023-08-12T04:47:03;30.00;54.10
1367;DHT22;16877;48.810;9.282;2023-08-12T04:49:32;30.00;54.10
1367;DHT22;16877;48.810;9.282;2023-08-12T04:51:59;30.10;54.10
1367;DHT22;16877;48.810;9.282;2023-08-12T04:54:26;30.00;54.20
1367;DHT22;16877;48.810;9.282;2023-08-12T04:56:54;30.00;54.10
1367;DHT22;16877;48.810;9.282;2023-08-12T04:59:22;30.00;54.20
1367;DHT22;16877;48.810;9.282;2023-08-12T05:01:50;30.10;54.20
1367;DHT22;16877;48.810;9.282;2023-08-12T05:04:21;30.00;54.30
1367;DHT22;16877;48.810;9.282;2023-08-12T05:06:51;30.00;54.40
1367;DHT22;16877;48.810;9.282;2023-08-12T05:09:19;30.00;54.30
1367;DHT22;16877;48.810;9.282;2023-08-12T05:11:56;30.00;54.20
1367;DHT22;16877;48.810;9.282;2023-08-12T05:14:27;30.00;54.30
1367;DHT22;16877;48.810;9.282;2023-08-12T05:16:54;30.00;54.40
1367;DHT22;16877;48.810;9.282;2023-08-12T05:19:25;30.00;54.40
1367;DHT22;16877;48.810;9.282;2023-08-12T05:21:54;30.00;54.40
1367;DHT22;16877;48.810;9.282;2023-08-12T05:24:22;30.00;54.60
1367;DHT22;16877;48.810;9.282;2023-08-12T05:26:49;30.00;54.50
1367;DHT22;16877;48.810;9.282;2023-08-12T05:29:17;30.00;54.40
1367;DHT22;16877;48.810;9.282;2023-08-12T05:31:44;30.10;54.50
1367;DHT22;16877;48.810;9.282;2023-08-12T05:34:11;30.10;54.50
1367;DHT22;16877;48.810;9.282;2023-08-12T05:36:39;30.10;54.40
1367;DHT22;16877;48.810;9.282;2023-08-12T05:39:08;30.10;54.50
1367;DHT22;16877;48.810;9.282;2023-08-12T05:41:36;30.10;54.60
1367;DHT22;16877;48.810;9.282;2023-08-12T05:44:05;30.10;54.70
1367;DHT22;16877;48.810;9.282;2023-08-12T05:46:32;30.20;54.80
1367;DHT22;16877;48.810;9.282;2023-08-12T05:49:03;30.10;54.70
1367;DHT22;16877;48.810;9.282;2023-08-12T05:51:30;30.20;54.80
1367;DHT22;16877;48.810;9.282;2023-08-12T05:53:58;30.20;54.90
1367;DHT22;16877;48.810;9.282;2023-08-12T05:56:27;30.20;54.90
1367;DHT22;16877;48.810;9.282;2023-08-12T05:58:55;30.30;55.10
1367;DHT22;16877;48.810;9.282;2023-08-12T06:01:22;30.30;55.10
1367;DHT22;16877;48.810;9.282;2023-08-12T06:03:50;30.40;55.20
1367;DHT22;16877;48.810;9.282;2023-08-12T06:06:17;30.40;55.20
1367;DHT22;16877;48.810;9.282;2023-08-12T06:08:44;30.40;55.20
1367;DHT22;16877;48.810;9.282;2023-08-12T06:11:11;30.40;55.20
1367;DHT22;16877;48.810;9.282;2023-08-12T06:13:40;30.40;55.20
1367;DHT22;16877;48.810;9.282;2023-08-12T06:16:08;30.50;55.20
1367;DHT22;16877;48.810;9.282;2023-08-12T06:18:35;30.50;55.30
1367;DHT22;16877;48.810;9.282;2023-08-12T06:21:02;30.50;55.40
1367;DHT22;16877;48.810;9.282;2023-08-12T06:23:30;30.50;55.50
1367;DHT22;16877;48.810;9.282;2023-08-12T06:25:57;30.50;55.70
1367;DHT22;16877;48.810;9.282;2023-08-12T06:28:25;30.50;55.80
1367;DHT22;16877;48.810;9.282;2023-08-12T06:30:54;30.50;55.80
1367;DHT22;16877;48.810;9.282;2023-08-12T06:33:21;30.50;55.90
1367;DHT22;16877;48.810;9.282;2023-08-12T06:35:50;30.50;55.90
1367;DHT22;16877;48.810;9.282;2023-08-12T06:38:17;30.50;55.90
1367;DHT22;16877;48.810;9.282;2023-08-12T06:40:45;30.50;55.80
1367;DHT22;16877;48.810;9.282;2023-08-12T06:43:13;30.50;55.90
1367;DHT22;16877;48.810;9.282;2023-08-12T06:45:40;30.60;56.00
1367;DHT22;16877;48.810;9.282;2023-08-12T06:48:09;30.50;56.20
1367;DHT22;16877;48.810;9.282;2023-08-12T06:50:36;30.50;56.20
1367;DHT22;16877;48.810;9.282;2023-08-12T06:53:04;30.50;56.00
1367;DHT22;16877;48.810;9.282;2023-08-12T06:55:32;30.50;55.80
1367;DHT22;16877;48.810;9.282;2023-08-12T06:57:59;30.40;56.00
1367;DHT22;16877;48.810;9.282;2023-08-12T07:00:28;30.40;56.20
1367;DHT22;16877;48.810;9.282;2023-08-12T07:02:55;30.40;56.50
1367;DHT22;16877;48.810;9.282;2023-08-12T07:05:24;30.40;56.70
1367;DHT22;16877;48.810;9.282;2023-08-12T07:07:54;30.50;56.50
1367;DHT22;16877;48.810;9.282;2023-08-12T07:10:22;30.60;56.80
1367;DHT22;16877;48.810;9.282;2023-08-12T07:12:52;30.60;56.60
1367;DHT22;16877;48.810;9.282;2023-08-12T07:15:19;30.70;56.70
1367;DHT22;16877;48.810;9.282;2023-08-12T07:17:48;30.70;56.90
1367;DHT22;16877;48.810;9.282;2023-08-12T07:20:16;30.70;57.00
1367;DHT22;16877;48.810;9.282;2023-08-12T07:22:46;30.90;57.00
1367;DHT22;16877;48.810;9.282;2023-08-12T07:25:13;30.90;56.90
1367;DHT22;16877;48.810;9.282;2023-08-12T07:27:41;31.10;57.00
1367;DHT22;16877;48.810;9.282;2023-08-12T07:30:09;31.20;56.80
1367;DHT22;16877;48.810;9.282;2023-08-12T07:32:37;31.30;57.00
1367;DHT22;16877;48.810;9.282;2023-08-12T07:35:06;31.20;56.70
1367;DHT22;16877;48.810;9.282;2023-08-12T07:37:33;31.30;56.90
1367;DHT22;16877;48.810;9.282;2023-08-12T07:40:02;31.40;57.30
1367;DHT22;16877;48.810;9.282;2023-08-12T07:42:30;31.60;57.80
1367;DHT22;16877;48.810;9.282;2023-08-12T07:44:58;31.60;57.30
1367;DHT22;16877;48.810;9.282;2023-08-12T07:47:28;31.70;57.40
1367;DHT22;16877;48.810;9.282;2023-08-12T07:49:56;31.90;57.60
1367;DHT22;16877;48.810;9.282;2023-08-12T07:52:23;32.00;57.60
1367;DHT22;16877;48.810;9.282;2023-08-12T07:54:51;32.10;57.50
1367;DHT22;16877;48.810;9.282;2023-08-12T07:57:20;32.20;57.40
1367;DHT22;16877;48.810;9.282;2023-08-12T07:59:49;32.40;56.90
1367;DHT22;16877;48.810;9.282;2023-08-12T08:02:18;32.50;56.30
1367;DHT22;16877;48.810;9.282;2023-08-12T08:04:45;32.60;56.10
1367;DHT22;16877;48.810;9.282;2023-08-12T08:07:16;32.60;56.00
1367;DHT22;16877;48.810;9.282;2023-08-12T08:09:44;32.70;55.70
1367;DHT22;16877;48.810;9.282;2023-08-12T08:12:12;32.80;55.50
1367;DHT22;16877;48.810;9.282;2023-08-12T08:14:42;32.80;55.30
1367;DHT22;16877;48.810;9.282;2023-08-12T08:17:09;32.80;55.20
1367;DHT22;16877;48.810;9.282;2023-08-12T08:19:37;32.90;55.20
1367;DHT22;16877;48.810;9.282;2023-08-12T08:22:04;33.00;55.00
1367;DHT22;16877;48.810;9.282;2023-08-12T08:24:32;33.10;54.90
1367;DHT22;16877;48.810;9.282;2023-08-12T08:26:59;33.30;54.60
1367;DHT22;16877;48.810;9.282;2023-08-12T08:29:30;33.40;54.40
1367;DHT22;16877;48.810;9.282;2023-08-12T08:31:59;33.60;54.30
1367;DHT22;16877;48.810;9.282;2023-08-12T08:34:26;33.80;54.10
1367;DHT22;16877;48.810;9.282;2023-08-12T08:36:54;33.80;53.70
1367;DHT22;16877;48.810;9.282;2023-08-12T08:39:21;33.80;53.50
1367;DHT22;16877;48.810;9.282;2023-08-12T08:41:49;34.00;53.40
1367;DHT22;16877;48.810;9.282;2023-08-12T08:44:17;34.20;53.20
1367;DHT22;16877;48.810;9.282;2023-08-12T08:46:49;34.40;53.10
1367;DHT22;16877;48.810;9.282;2023-08-12T08:49:20;34.60;53.00
1367;DHT22;16877;48.810;9.282;2023-08-12T08:51:48;34.70;52.50
1367;DHT22;16877;48.810;9.282;2023-08-12T08:54:16;34.90;52.30
1367;DHT22;16877;48.810;9.282;2023-08-12T08:56:44;35.20;52.10
1367;DHT22;16877;48.810;9.282;2023-08-12T08:59:11;35.20;51.60
1367;DHT22;16877;48.810;9.282;2023-08-12T09:01:39;35.40;51.50
1367;DHT22;16877;48.810;9.282;2023-08-12T09:04:07;35.60;51.60
1367;DHT22;16877;48.810;9.282;2023-08-12T09:06:37;35.60;51.20
1367;DHT22;16877;48.810;9.282;2023-08-12T09:09:07;35.70;50.80
1367;DHT22;16877;48.810;9.282;2023-08-12T09:11:38;35.80;50.10
1367;DHT22;16877;48.810;9.282;2023-08-12T09:14:08;35.90;49.70
1367;DHT22;16877;48.810;9.282;2023-08-12T09:16:35;36.10;49.30
1367;DHT22;16877;48.810;9.282;2023-08-12T09:19:03;36.20;49.10
1367;DHT22;16877;48.810;9.282;2023-08-12T09:21:35;36.30;49.60
1367;DHT22;16877;48.810;9.282;2023-08-12T09:24:07;36.30;49.80
1367;DHT22;16877;48.810;9.282;2023-08-12T09:26:35;36.30;49.80
1367;DHT22;16877;48.810;9.282;2023-08-12T09:29:03;36.20;49.70
1367;DHT22;16877;48.810;9.282;2023-08-12T09:31:31;36.10;50.00
1367;DHT22;16877;48.810;9.282;2023-08-12T09:34:04;36.00;50.10
1367;DHT22;16877;48.810;9.282;2023-08-12T09:36:33;36.20;50.00
1367;DHT22;16877;48.810;9.282;2023-08-12T09:39:08;36.50;49.60
1367;DHT22;16877;48.810;9.282;2023-08-12T09:41:37;36.80;49.50
1367;DHT22;16877;48.810;9.282;2023-08-12T09:44:10;36.80;48.30
1367;DHT22;16877;48.810;9.282;2023-08-12T09:46:49;37.20;48.40
1367;DHT22;16877;48.810;9.282;2023-08-12T09:49:52;37.00;48.10
1367;DHT22;16877;48.810;9.282;2023-08-12T09:52:39;36.80;47.60
1367;DHT22;16877;48.810;9.282;2023-08-12T09:55:09;36.80;48.10
1367;DHT22;16877;48.810;9.282;2023-08-12T09:57:40;37.30;48.40
1367;DHT22;16877;48.810;9.282;2023-08-12T10:00:11;37.30;47.90
1367;DHT22;16877;48.810;9.282;2023-08-12T10:02:43;37.60;47.90
1367;DHT22;16877;48.810;9.282;2023-08-12T10:05:18;37.60;47.60
1367;DHT22;16877;48.810;9.282;2023-08-12T10:07:47;37.40;47.60
1367;DHT22;16877;48.810;9.282;2023-08-12T10:10:22;37.20;47.70
1367;DHT22;16877;48.810;9.282;2023-08-12T10:13:11;37.10;47.70
1367;DHT22;16877;48.810;9.282;2023-08-12T10:15:52;36.60;47.10
1367;DHT22;16877;48.810;9.282;2023-08-12T10:18:23;36.40;47.30
1367;DHT22;16877;48.810;9.282;2023-08-12T10:20:55;36.40;49.10
1367;DHT22;16877;48.810;9.282;2023-08-12T10:23:24;36.30;49.50
1367;DHT22;16877;48.810;9.282;2023-08-12T10:26:08;36.30;48.70
1367;DHT22;16877;48.810;9.282;2023-08-12T10:28:39;36.20;48.40
1367;DHT22;16877;48.810;9.282;2023-08-12T10:31:07;36.20;49.50
1367;DHT22;16877;48.810;9.282;2023-08-12T10:33:35;36.20;49.60
1367;DHT22;16877;48.810;9.282;2023-08-12T10:36:03;36.10;49.40
1367;DHT22;16877;48.810;9.282;2023-08-12T10:38:34;35.80;49.30
1367;DHT22;16877;48.810;9.282;2023-08-12T10:41:20;35.80;48.60
1367;DHT22;16877;48.810;9.282;2023-08-12T10:44:05;36.00;49.10
1367;DHT22;16877;48.810;9.282;2023-08-12T10:46:34;36.30;48.80
1367;DHT22;16877;48.810;9.282;2023-08-12T10:49:05;36.30;47.90
1367;DHT22;16877;48.810;9.282;2023-08-12T10:51:46;36.30;47.70
1367;DHT22;16877;48.810;9.282;2023-08-12T10:54:24;36.00;47.60
1367;DHT22;16877;48.810;9.282;2023-08-12T10:57:21;35.90;47.90
1367;DHT22;16877;48.810;9.282;2023-08-12T11:00:06;35.80;48.30
1367;DHT22;16877;48.810;9.282;2023-08-12T11:02:39;35.80;48.50
1367;DHT22;16877;48.810;9.282;2023-08-12T11:05:08;35.80;48.90
1367;DHT22;16877;48.810;9.282;2023-08-12T11:07:56;35.80;49.00
1367;DHT22;16877;48.810;9.282;2023-08-12T11:10:24;35.70;48.90
1367;DHT22;16877;48.810;9.282;2023-08-12T11:12:56;35.90;48.50
1367;DHT22;16877;48.810;9.282;2023-08-12T11:15:30;35.80;47.60
1367;DHT22;16877;48.810;9.282;2023-08-12T11:17:59;36.40;47.30
1367;DHT22;16877;48.810;9.282;2023-08-12T11:20:32;36.70;47.20
1367;DHT22;16877;48.810;9.282;2023-08-12T11:23:20;36.70;46.60
1367;DHT22;16877;48.810;9.282;2023-08-12T11:25:58;36.60;46.70
1367;DHT22;16877;48.810;9.282;2023-08-12T11:28:28;37.10;46.10
1367;DHT22;16877;48.810;9.282;2023-08-12T11:31:14;37.60;45.60
1367;DHT22;16877;48.810;9.282;2023-08-12T11:33:49;37.90;45.50
1367;DHT22;16877;48.810;9.282;2023-08-12T11:36:18;37.30;44.90
1367;DHT22;16877;48.810;9.282;2023-08-12T11:38:53;37.10;45.30
1367;DHT22;16877;48.810;9.282;2023-08-12T11:41:22;37.50;45.30
1367;DHT22;16877;48.810;9.282;2023-08-12T11:43:51;37.40;45.10
1367;DHT22;16877;48.810;9.282;2023-08-12T11:46:33;37.80;45.20
1367;DHT22;16877;48.810;9.282;2023-08-12T11:49:02;38.40;44.90
1367;DHT22;16877;48.810;9.282;2023-08-12T11:51:38;38.50;44.30
1367;DHT22;16877;48.810;9.282;2023-08-12T11:54:07;38.50;43.60
1367;DHT22;16877;48.810;9.282;2023-08-12T11:56:41;38.90;43.60
1367;DHT22;16877;48.810;9.282;2023-08-12T11:59:11;38.70;43.60
1367;DHT22;16877;48.810;9.282;2023-08-12T12:01:39;38.20;43.20
1367;DHT22;16877;48.810;9.282;2023-08-12T12:04:11;37.90;43.70
1367;DHT22;16877;48.810;9.282;2023-08-12T12:06:39;37.40;44.30
1367;DHT22;16877;48.810;9.282;2023-08-12T12:09:11;37.10;44.80
1367;DHT22;16877;48.810;9.282;2023-08-12T12:11:42;36.40;46.00
1367;DHT22;16877;48.810;9.282;2023-08-12T12:14:13;35.90;47.70
1367;DHT22;16877;48.810;9.282;2023-08-12T12:16:42;35.60;48.70
1367;DHT22;16877;48.810;9.282;2023-08-12T12:19:14;35.40;48.70
1367;DHT22;16877;48.810;9.282;2023-08-12T12:21:46;35.40;48.40
1367;DHT22;16877;48.810;9.282;2023-08-12T12:24:14;35.40;48.20
1367;DHT22;16877;48.810;9.282;2023-08-12T12:26:43;35.40;48.20
1367;DHT22;16877;48.810;9.282;2023-08-12T12:29:13;35.30;48.60
1367;DHT22;16877;48.810;9.282;2023-08-12T12:31:41;35.10;48.60
1367;DHT22;16877;48.810;9.282;2023-08-12T12:34:08;35.00;49.10
1367;DHT22;16877;48.810;9.282;2023-08-12T12:36:38;34.90;49.50
1367;DHT22;16877;48.810;9.282;2023-08-12T12:39:05;34.80;49.70
1367;DHT22;16877;48.810;9.282;2023-08-12T12:41:34;34.70;50.00
1367;DHT22;16877;48.810;9.282;2023-08-12T12:44:09;34.60;50.10
1367;DHT22;16877;48.810;9.282;2023-08-12T12:46:38;34.60;50.30
1367;DHT22;16877;48.810;9.282;2023-08-12T12:49:06;34.50;50.90
1367;DHT22;16877;48.810;9.282;2023-08-12T12:51:33;34.40;50.90
1367;DHT22;16877;48.810;9.282;2023-08-12T12:54:01;34.30;51.20
1367;DHT22;16877;48.810;9.282;2023-08-12T12:56:30;34.20;51.70
1367;DHT22;16877;48.810;9.282;2023-08-12T12:59:04;34.10;52.10
1367;DHT22;16877;48.810;9.282;2023-08-12T13:01:44;34.00;51.90
1367;DHT22;16877;48.810;9.282;2023-08-12T13:04:20;33.90;52.00
1367;DHT22;16877;48.810;9.282;2023-08-12T13:06:49;33.80;52.10
1367;DHT22;16877;48.810;9.282;2023-08-12T13:09:16;33.80;52.40
1367;DHT22;16877;48.810;9.282;2023-08-12T13:11:44;33.70;53.70
1367;DHT22;16877;48.810;9.282;2023-08-12T13:14:22;33.60;53.40
1367;DHT22;16877;48.810;9.282;2023-08-12T13:16:49;33.60;53.40
1367;DHT22;16877;48.810;9.282;2023-08-12T13:19:18;33.60;53.60
1367;DHT22;16877;48.810;9.282;2023-08-12T13:21:45;33.50;53.80
1367;DHT22;16877;48.810;9.282;2023-08-12T13:24:28;33.40;54.00
1367;DHT22;16877;48.810;9.282;2023-08-12T13:26:55;33.40;54.60
1367;DHT22;16877;48.810;9.282;2023-08-12T13:29:23;33.40;55.20
1367;DHT22;16877;48.810;9.282;2023-08-12T13:31:51;33.40;55.60
1367;DHT22;16877;48.810;9.282;2023-08-12T13:34:22;33.30;55.70
1367;DHT22;16877;48.810;9.282;2023-08-12T13:36:49;33.30;55.30
1367;DHT22;16877;48.810;9.282;2023-08-12T13:39:17;33.30;54.70
1367;DHT22;16877;48.810;9.282;2023-08-12T13:41:44;33.20;54.30
1367;DHT22;16877;48.810;9.282;2023-08-12T13:44:12;33.20;54.20
1367;DHT22;16877;48.810;9.282;2023-08-12T13:46:39;33.20;54.80
1367;DHT22;16877;48.810;9.282;2023-08-12T13:49:07;33.30;55.80
1367;DHT22;16877;48.810;9.282;2023-08-12T13:51:35;33.30;56.30
1367;DHT22;16877;48.810;9.282;2023-08-12T13:54:03;33.30;56.20
1367;DHT22;16877;48.810;9.282;2023-08-12T13:56:30;33.50;56.90
1367;DHT22;16877;48.810;9.282;2023-08-12T13:59:00;33.60;56.60
1367;DHT22;16877;48.810;9.282;2023-08-12T14:01:27;34.00;56.40
1367;DHT22;16877;48.810;9.282;2023-08-12T14:03:56;34.80;55.90
1367;DHT22;16877;48.810;9.282;2023-08-12T14:06:24;35.20;55.00
1367;DHT22;16877;48.810;9.282;2023-08-12T14:08:54;36.00;54.40
1367;DHT22;16877;48.810;9.282;2023-08-12T14:11:21;36.40;53.80
1367;DHT22;16877;48.810;9.282;2023-08-12T14:13:50;36.40;53.10
1367;DHT22;16877;48.810;9.282;2023-08-12T14:16:17;36.90;52.80
1367;DHT22;16877;48.810;9.282;2023-08-12T14:18:45;37.40;52.20
1367;DHT22;16877;48.810;9.282;2023-08-12T14:21:14;37.80;51.60
1367;DHT22;16877;48.810;9.282;2023-08-12T14:23:41;38.30;51.10
1367;DHT22;16877;48.810;9.282;2023-08-12T14:26:14;38.60;50.50
1367;DHT22;16877;48.810;9.282;2023-08-12T14:28:42;38.90;49.90
1367;DHT22;16877;48.810;9.282;2023-08-12T14:31:11;39.20;49.40
1367;DHT22;16877;48.810;9.282;2023-08-12T14:33:40;39.50;48.90
1367;DHT22;16877;48.810;9.282;2023-08-12T14:36:07;39.80;48.50
1367;DHT22;16877;48.810;9.282;2023-08-12T14:38:34;40.00;47.90
1367;DHT22;16877;48.810;9.282;2023-08-12T14:41:06;40.30;47.60
1367;DHT22;16877;48.810;9.282;2023-08-12T14:43:49;40.50;47.30
1367;DHT22;16877;48.810;9.282;2023-08-12T14:46:16;40.70;46.90
1367;DHT22;16877;48.810;9.282;2023-08-12T14:48:45;40.90;46.40
1367;DHT22;16877;48.810;9.282;2023-08-12T14:51:12;41.00;46.20
1367;DHT22;16877;48.810;9.282;2023-08-12T14:53:43;41.00;45.90
1367;DHT22;16877;48.810;9.282;2023-08-12T14:56:13;41.10;45.80
1367;DHT22;16877;48.810;9.282;2023-08-12T14:58:48;41.20;45.90
1367;DHT22;16877;48.810;9.282;2023-08-12T15:01:16;41.20;46.00
1367;DHT22;16877;48.810;9.282;2023-08-12T15:03:45;41.40;45.80
1367;DHT22;16877;48.810;9.282;2023-08-12T15:06:14;41.50;45.60
1367;DHT22;16877;48.810;9.282;2023-08-12T15:08:46;41.60;45.40
1367;DHT22;16877;48.810;9.282;2023-08-12T15:11:14;41.70;45.10
1367;DHT22;16877;48.810;9.282;2023-08-12T15:13:42;41.80;45.00
1367;DHT22;16877;48.810;9.282;2023-08-12T15:16:16;41.80;44.90
1367;DHT22;16877;48.810;9.282;2023-08-12T15:18:43;41.90;44.70
1367;DHT22;16877;48.810;9.282;2023-08-12T15:21:10;41.90;44.60
1367;DHT22;16877;48.810;9.282;2023-08-12T15:23:38;42.10;44.60
1367;DHT22;16877;48.810;9.282;2023-08-12T15:26:05;41.80;44.10
1367;DHT22;16877;48.810;9.282;2023-08-12T15:28:33;41.50;43.80
1367;DHT22;16877;48.810;9.282;2023-08-12T15:31:00;41.20;44.00
1367;DHT22;16877;48.810;9.282;2023-08-12T15:33:29;40.80;44.30
1367;DHT22;16877;48.810;9.282;2023-08-12T15:35:56;40.50;44.60
1367;DHT22;16877;48.810;9.282;2023-08-12T15:38:25;40.10;44.90
1367;DHT22;16877;48.810;9.282;2023-08-12T15:40:55;39.80;45.10
1367;DHT22;16877;48.810;9.282;2023-08-12T15:43:23;39.50;45.50
1367;DHT22;16877;48.810;9.282;2023-08-12T15:46:05;39.20;45.70
1367;DHT22;16877;48.810;9.282;2023-08-12T15:48:34;39.00;46.00
1367;DHT22;16877;48.810;9.282;2023-08-12T15:51:05;38.60;46.30
1367;DHT22;16877;48.810;9.282;2023-08-12T15:53:32;38.40;46.50
1367;DHT22;16877;48.810;9.282;2023-08-12T15:56:00;38.20;46.80
1367;DHT22;16877;48.810;9.282;2023-08-12T15:58:27;38.00;46.70
1367;DHT22;16877;48.810;9.282;2023-08-12T16:00:55;37.70;47.20